Alcova, WY (82620)

12:28 PM MDT on August 29, 2016 (GMT -0600)
North Platte, Windom Floristics | | Change Station

Elev 5230 ft 42.71 °N, 106.56 °W | Updated 0 second ago

Clear
Clear
76.7 °F
Feels Like 77 °F
N
8.1
Wind Variable Wind from North
Gusts 8.1 mph

Today
High -- | Low -- °F
--% Chance of Precip.
Yesterday
High -- | Low -- °F
Precip. -- in
Pressure 30.17 in
Visibility 10.0 miles
Clouds Clear
Heat Index 77 °F
Dew Point 42 °F
Humidity 29%
Rainfall 0.00 in
Snow Depth Not available.
6:30 AM 7:45 PM
Waning Crescent, 7% visible
METAR KCPR 291753Z 35008KT 10SM CLR 26/06 A3035 RMK AO2 SLP217 T02560056 10256 20089 58001
Pressure 30.17 in
Visibility 10.0 miles
Clouds Clear
Heat Index 77 °F
Dew Point 42 °F
Humidity 29%
Rainfall 0.00 in
Snow Depth Not available.
6:30 AM 7:45 PM
Waning Crescent, 7% visible
METAR KCPR 291753Z 35008KT 10SM CLR 26/06 A3035 RMK AO2 SLP217 T02560056 10256 20089 58001

10-Day Weather Forecast

Almanac

Astronomy

Aug. 29, 2016 Rise Set
Actual Time
Civil Twilight
Nautical Twilight
Astronomical Twilight
Moon
Length of Visible Light
Length of Day
Tomorrow will be .
, % of the Moon is Illuminated

Today's Extremes

State Highs State Lows

Community

WunderPhotos

Upload Photos

1,935,684 photos uploaded!

WunderBlog® & News

Nearby

Air Quality

  Air Quality AQ Index Pollutant
Not available.

Snow Depth

Station Depth Elevation

Earthquake Activity

City Distance Mag. Time & Date
Minimum magnitude displayed is 2.5.

Coastal Water Temperatures

Place Temperature

Stations

Nearby Weather Stations

Station Location Temp. Windchill Dew Point Humidity Wind Precip. Elev Updated Type
                   

Watches & Warnings

There are currently no watches in effect.